CheckWX is a tool to help pilots better visualize weather data.  It is not intended as a substitute for an official pre-flight weather briefing.

07:40:57 UTC

KNDZ METAR
Whiting Field NAS South Airport
Milton, Florida, USA
Current

45 mins ago

KNDZ 050656Z AUTO 33008KT 10SM SCT120 19/14 A2993 RMK AO2 RAB26E40 SLP120 P0000 T01890144 $
Observed
Apr-5 @ 06:56 UTC
Wind
  • 330° at 8 KTS
Visibility
Flight Rules
VFR
Cloud Levels
  • Scattered at 12,000' AGL
Temperature
19°C / 66°F
Dewpoint
14°C / 57°F
Humidity
73%
Altimeter
29.93" Hg
Pressure
1013.52 hPa
Current Rain
0.01"
Previous

3 hours ago

KNDZ 050456Z AUTO 32005KT 10SM BKN110 18/15 A2994 RMK AO2 RAE15 SLP123 P0000 T01780150 $
Observed
Apr-5 @ 04:56 UTC
Wind
  • 320° at 5 KTS
Visibility
Flight Rules
VFR
Cloud Levels
  • Broken at 11,000' AGL
Temperature
18°C / 64°F
Dewpoint
15°C / 59°F
Humidity
83%
Altimeter
29.94" Hg
Pressure
1013.92 hPa
Current Rain
0.01"
Previous

5 hours ago

KNDZ 050256Z AUTO 32004KT 10SM OVC100 19/14 A2995 RMK AO2 SLP127 T01940139 50004 $
Observed
Apr-5 @ 02:56 UTC
Wind
  • 320° at 4 KTS
Visibility
Flight Rules
VFR
Cloud Levels
  • Overcast at 10,000' AGL
Temperature
19°C / 66°F
Dewpoint
14°C / 57°F
Humidity
73%
Altimeter
29.95" Hg
Pressure
1014.22 hPa